Time;durP1;ratioP1;P1;durP2;ratioP2;P2;SDS_P1;SDS_P2;PMS_P1;PMS_P2;Temp;Humidity;BMP_temperature;BMP_pressure;BME280_temperature;BME280_humidity;BME280_pressure;Samples;Min_cycle;Max_cycle;Signal;HPM_P1;HPM_P2
2021/12/21 00:00:12;;;;;;;3.53;1.52;;;;;;;9.01;44.67;101553.31;144992;571;6002;-81
2021/12/21 00:02:43;;;;;;;3.90;1.55;;;;;;;8.98;44.20;101553.16;144992;598;6002;-80
2021/12/21 00:05:16;;;;;;;2.67;1.40;;;;;;;8.91;44.47;101549.38;144992;570;6002;-80
2021/12/21 00:07:42;;;;;;;4.40;1.65;;;;;;;9.00;44.28;101544.63;144992;629;6002;-82
2021/12/21 00:10:10;;;;;;;3.55;1.40;;;;;;;8.87;44.69;101550.91;144992;584;6002;-80
2021/12/21 00:12:39;;;;;;;3.95;1.40;;;;;;;8.95;44.11;101559.06;144992;584;6002;-80
2021/12/21 00:15:19;;;;;;;3.92;1.35;;;;;;;8.86;44.03;101556.91;144992;606;6003;-80
2021/12/21 00:20:51;;;;;;;3.35;1.50;;;;;;;9.02;43.62;101562.81;144992;601;6004;-80
2021/12/21 00:26:21;;;;;;;2.97;1.58;;;;;;;9.04;44.02;101574.19;144992;736;6002;-80
2021/12/21 00:28:59;;;;;;;4.05;1.30;;;;;;;9.06;43.72;101580.31;144992;614;6002;-81
2021/12/21 00:31:27;;;;;;;3.97;1.50;;;;;;;9.24;44.40;101577.72;144992;698;6002;-80
2021/12/21 00:33:54;;;;;;;2.72;1.42;;;;;;;9.18;43.78;101577.41;144992;576;6002;-80
2021/12/21 00:36:24;;;;;;;3.10;1.23;;;;;;;9.25;44.02;101571.75;144992;637;6002;-80
2021/12/21 00:38:53;;;;;;;2.47;1.02;;;;;;;9.14;43.78;101573.81;144992;577;6002;-81
2021/12/21 00:41:20;;;;;;;2.50;1.48;;;;;;;9.12;43.85;101583.22;144992;594;6002;-81
2021/12/21 00:43:48;;;;;;;3.37;1.27;;;;;;;9.25;43.39;101589.87;144992;606;6002;-80
2021/12/21 00:46:15;;;;;;;2.22;1.33;;;;;;;9.22;43.35;101579.37;144992;633;6002;-81
2021/12/21 00:48:49;;;;;;;2.92;1.20;;;;;;;9.16;43.81;101586.84;144992;614;6002;-81
2021/12/21 00:51:17;;;;;;;2.33;1.08;;;;;;;9.06;43.69;101578.59;144992;571;6002;-81
2021/12/21 00:53:44;;;;;;;4.55;1.60;;;;;;;9.37;43.77;101592.16;144992;609;6002;-79
2021/12/21 00:56:11;;;;;;;3.42;1.40;;;;;;;9.31;43.46;101592.78;144992;583;6002;-81
2021/12/21 00:58:37;;;;;;;2.10;1.30;;;;;;;9.34;43.71;101584.28;144992;634;6002;-80
2021/12/21 01:01:06;;;;;;;2.53;1.17;;;;;;;9.43;43.57;101583.00;144992;582;6002;-80
2021/12/21 01:03:35;;;;;;;2.35;1.20;;;;;;;9.18;43.35;101587.78;144992;629;6002;-81
2021/12/21 01:06:14;;;;;;;1.77;1.12;;;;;;;9.06;43.51;101582.91;144992;686;6002;-80
2021/12/21 01:09:05;;;;;;;2.92;1.50;;;;;;;9.12;43.43;101590.09;144992;600;6002;-80
2021/12/21 01:11:40;;;;;;;2.97;1.30;;;;;;;9.18;42.87;101588.69;144992;577;6004;-81
2021/12/21 01:17:17;;;;;;;2.12;1.20;;;;;;;9.20;43.19;101597.41;144992;578;6002;-81
2021/12/21 01:19:57;;;;;;;2.20;1.20;;;;;;;9.03;43.60;101601.75;144992;565;6002;-79
2021/12/21 01:23:05;;;;;;;2.55;1.45;;;;;;;9.04;43.24;101595.78;144992;566;6002;-80
2021/12/21 01:25:28;;;;;;;3.05;1.02;;;;;;;9.10;43.60;101602.06;144992;585;6004;-80
2021/12/21 01:28:14;;;;;;;3.92;1.37;;;;;;;9.07;43.19;101601.12;144992;588;6004;-79
2021/12/21 01:33:50;;;;;;;2.97;1.50;;;;;;;9.09;43.56;101619.31;144992;710;6002;-81
2021/12/21 01:36:37;;;;;;;2.65;1.20;;;;;;;9.27;43.58;101619.34;144992;583;6004;-81
2021/12/21 01:42:01;;;;;;;2.30;1.35;;;;;;;9.43;43.37;101626.16;144992;601;6004;-81
2021/12/21 01:49:34;;;;;;;1.92;1.35;;;;;;;9.19;43.80;101618.94;144992;561;6004;-80
2021/12/21 01:50:08;;;;;;;1.85;1.00;;;;;;;9.07;44.25;101629.59;144992;579;6004;-81
2021/12/21 01:52:34;;;;;;;2.15;1.30;;;;;;;9.03;43.89;101626.78;144992;579;6004;-79
2021/12/21 01:55:01;;;;;;;1.85;1.05;;;;;;;9.02;43.98;101623.31;144992;571;6004;-81
2021/12/21 01:57:27;;;;;;;2.15;1.30;;;;;;;9.07;44.10;101627.00;144992;581;6004;-80
2021/12/21 01:59:54;;;;;;;3.53;1.10;;;;;;;9.32;43.96;101633.44;144992;583;6004;-80
2021/12/21 02:02:21;;;;;;;1.92;1.10;;;;;;;9.04;43.93;101633.75;144992;596;6004;-80
2021/12/21 02:04:48;;;;;;;3.05;1.00;;;;;;;9.11;43.53;101630.63;144992;567;6004;-81
2021/12/21 02:07:15;;;;;;;2.60;1.48;;;;;;;9.11;43.26;101637.53;144992;587;6005;-80
2021/12/21 02:09:42;;;;;;;1.73;1.10;;;;;;;9.01;43.18;101637.06;144992;574;6004;-80
2021/12/21 02:12:11;;;;;;;1.35;1.10;;;;;;;9.12;43.13;101634.13;144992;564;6004;-80
2021/12/21 02:14:39;;;;;;;2.75;1.10;;;;;;;9.00;43.25;101639.56;144992;578;6004;-80
2021/12/21 02:17:45;;;;;;;2.15;0.80;;;;;;;9.00;42.55;101635.25;144992;606;6004;-79
2021/12/21 02:23:15;;;;;;;3.78;1.20;;;;;;;8.77;43.00;101639.28;144992;568;6004;-80
2021/12/21 02:26:07;;;;;;;1.90;1.12;;;;;;;8.66;42.63;101643.91;144992;603;6004;-80
2021/12/21 02:31:19;;;;;;;3.70;1.27;;;;;;;8.62;43.28;101641.06;144992;613;6002;-81
2021/12/21 02:33:47;;;;;;;2.35;1.00;;;;;;;8.78;42.88;101647.94;144992;683;6002;-80
2021/12/21 02:36:14;;;;;;;1.83;1.02;;;;;;;8.62;42.29;101641.06;144992;569;6002;-80
2021/12/21 02:38:40;;;;;;;2.22;1.00;;;;;;;8.59;42.68;101641.81;144992;589;6002;-79
2021/12/21 02:41:08;;;;;;;2.35;1.05;;;;;;;8.65;42.69;101654.16;144992;604;6002;-82
2021/12/21 02:43:38;;;;;;;1.85;1.00;;;;;;;8.66;42.39;101651.66;144992;580;6002;-79
2021/12/21 02:46:06;;;;;;;3.30;1.23;;;;;;;8.52;42.52;101652.62;144992;585;6002;-80
2021/12/21 02:48:33;;;;;;;1.90;1.00;;;;;;;8.74;42.84;101648.59;144992;613;6002;-81
2021/12/21 02:51:01;;;;;;;1.40;1.00;;;;;;;8.69;42.40;101646.66;144992;583;6003;-81
2021/12/21 02:53:27;;;;;;;2.28;0.90;;;;;;;8.74;42.42;101649.47;144992;572;6002;-81
2021/12/21 02:55:54;;;;;;;2.22;1.10;;;;;;;8.70;41.53;101644.94;144992;596;6002;-80
2021/12/21 02:58:20;;;;;;;1.90;1.25;;;;;;;8.82;42.31;101650.75;144992;589;6002;-80
2021/12/21 03:00:47;;;;;;;1.58;1.05;;;;;;;8.92;41.70;101656.41;144992;605;6002;-79
2021/12/21 03:03:15;;;;;;;3.55;1.10;;;;;;;8.89;41.70;101642.50;144992;577;6002;-79
2021/12/21 03:05:49;;;;;;;2.03;1.10;;;;;;;9.03;42.28;101650.97;144992;577;6002;-80
2021/12/21 03:08:22;;;;;;;3.37;2.03;;;;;;;9.15;42.32;101655.91;144992;598;6002;-81
2021/12/21 03:13:54;;;;;;;1.48;1.08;;;;;;;9.28;42.04;101661.72;144992;576;6005;-80
2021/12/21 03:16:21;;;;;;;2.85;1.20;;;;;;;9.03;42.64;101674.28;144992;576;6004;-80
2021/12/21 03:18:48;;;;;;;1.83;1.00;;;;;;;8.97;42.76;101663.63;144992;567;6004;-80
2021/12/21 03:21:16;;;;;;;2.83;1.30;;;;;;;8.85;42.02;101670.75;144992;660;6004;-81
2021/12/21 03:23:43;;;;;;;2.03;0.95;;;;;;;8.86;42.33;101664.75;144992;595;6004;-86
2021/12/21 03:26:16;;;;;;;2.30;1.10;;;;;;;8.63;42.09;101669.62;144992;757;6004;-80
2021/12/21 03:28:45;;;;;;;1.90;0.82;;;;;;;8.66;41.80;101669.78;144992;580;6004;-80
2021/12/21 03:31:11;;;;;;;2.10;1.00;;;;;;;8.68;41.96;101678.50;144992;580;6004;-81
2021/12/21 03:33:38;;;;;;;2.20;0.90;;;;;;;8.62;41.61;101680.81;144992;563;6004;-80
2021/12/21 03:36:05;;;;;;;2.05;0.88;;;;;;;8.57;41.58;101689.12;144992;583;6004;-80
2021/12/21 03:38:34;;;;;;;2.62;1.17;;;;;;;8.80;41.87;101682.59;144992;569;6004;-81
2021/12/21 03:41:07;;;;;;;3.42;1.23;;;;;;;8.75;41.59;101692.69;144992;591;6004;-79
2021/12/21 03:43:34;;;;;;;1.40;0.90;;;;;;;8.65;41.63;101693.91;144992;597;6004;-81
2021/12/21 03:46:11;;;;;;;1.35;1.10;;;;;;;8.56;41.64;101688.25;144992;570;6004;-80
2021/12/21 03:48:43;;;;;;;1.27;1.00;;;;;;;8.52;41.74;101687.16;144992;594;6004;-81
2021/12/21 03:51:10;;;;;;;0.93;0.82;;;;;;;8.52;41.83;101704.41;144992;608;6004;-80
2021/12/21 03:53:37;;;;;;;3.50;1.23;;;;;;;8.66;41.84;101705.16;144992;590;6004;-80
2021/12/21 03:56:25;;;;;;;1.87;0.98;;;;;;;8.63;41.67;101702.38;144992;583;6004;-80
2021/12/21 03:58:52;;;;;;;1.55;0.98;;;;;;;8.58;41.87;101702.13;144992;590;6005;-79
2021/12/21 04:01:19;;;;;;;1.52;1.00;;;;;;;8.61;41.30;101715.25;144991;600;6000;-80
2021/12/21 04:03:46;;;;;;;2.55;1.27;;;;;;;8.75;42.12;101712.50;144992;607;6002;-80
2021/12/21 04:06:13;;;;;;;1.65;0.95;;;;;;;8.62;40.82;101714.44;144991;580;6002;-80
2021/12/21 04:08:40;;;;;;;4.12;1.00;;;;;;;8.93;41.81;101717.78;144992;586;6002;-80
2021/12/21 04:11:06;;;;;;;1.62;1.00;;;;;;;8.79;40.52;101717.91;144992;640;6002;-81
2021/12/21 04:13:33;;;;;;;2.53;1.05;;;;;;;8.77;40.49;101719.53;144992;634;6003;-80
2021/12/21 04:16:01;;;;;;;1.85;1.15;;;;;;;8.84;41.21;101729.41;144992;587;6002;-80
2021/12/21 04:18:28;;;;;;;2.42;1.23;;;;;;;8.85;41.33;101732.91;144992;566;6002;-82
2021/12/21 04:20:54;;;;;;;2.28;1.45;;;;;;;8.79;40.79;101733.44;144992;629;6003;-80
2021/12/21 04:23:21;;;;;;;2.62;1.30;;;;;;;8.71;41.22;101733.03;144992;623;6002;-80
2021/12/21 04:25:47;;;;;;;2.05;1.15;;;;;;;8.65;40.81;101739.59;144992;565;6002;-80
2021/12/21 04:28:14;;;;;;;1.92;1.15;;;;;;;8.88;41.88;101743.44;144992;602;6002;-80
2021/12/21 04:30:40;;;;;;;2.22;1.33;;;;;;;8.84;40.71;101744.06;144992;580;6002;-81
2021/12/21 04:33:07;;;;;;;2.00;1.35;;;;;;;8.78;41.15;101747.22;144992;587;6002;-81
2021/12/21 04:35:33;;;;;;;2.72;1.40;;;;;;;8.84;41.31;101749.22;144992;602;6002;-81
2021/12/21 04:38:12;;;;;;;2.10;1.25;;;;;;;8.78;40.88;101755.00;144992;571;6002;-81
2021/12/21 04:40:44;;;;;;;2.80;1.50;;;;;;;8.77;40.48;101754.91;144992;618;6011;-80
2021/12/21 04:43:11;;;;;;;1.70;1.33;;;;;;;8.84;39.70;101759.59;144992;583;6002;-80
2021/12/21 04:45:37;;;;;;;1.85;1.20;;;;;;;8.77;39.96;101757.50;144992;589;6002;-81
2021/12/21 04:48:04;;;;;;;1.30;0.98;;;;;;;8.92;40.60;101753.13;144992;701;6002;-81
2021/12/21 04:50:31;;;;;;;2.90;1.37;;;;;;;9.07;41.04;101756.53;144992;568;6002;-81
2021/12/21 04:52:58;;;;;;;1.75;1.30;;;;;;;9.07;40.27;101768.59;144992;609;6002;-79
2021/12/21 04:55:24;;;;;;;2.72;1.20;;;;;;;9.01;40.52;101768.28;144992;686;6002;-82
2021/12/21 04:57:51;;;;;;;3.05;1.25;;;;;;;9.02;40.60;101765.75;144991;708;6002;-81
2021/12/21 05:00:17;;;;;;;2.60;1.27;;;;;;;9.20;40.40;101770.13;144992;579;6002;-80
2021/12/21 05:02:44;;;;;;;1.83;1.15;;;;;;;9.29;40.27;101770.59;144991;603;6002;-81
2021/12/21 05:05:11;;;;;;;1.77;1.20;;;;;;;9.37;39.82;101776.16;144992;589;6002;-81
2021/12/21 05:07:40;;;;;;;1.67;1.05;;;;;;;9.51;39.88;101780.34;144992;678;6002;-81
2021/12/21 05:10:09;;;;;;;4.18;1.58;;;;;;;9.64;39.79;101789.66;144992;596;6002;-81
2021/12/21 05:12:36;;;;;;;2.67;1.48;;;;;;;9.49;39.55;101787.16;144992;603;6002;-80
2021/12/21 05:15:06;;;;;;;2.33;1.20;;;;;;;9.48;39.29;101787.09;144991;597;6002;-79
2021/12/21 05:17:32;;;;;;;2.95;1.30;;;;;;;9.23;39.86;101796.19;144992;606;6002;-80
2021/12/21 05:19:59;;;;;;;2.65;1.37;;;;;;;9.19;39.14;101795.13;144992;618;6002;-79
2021/12/21 05:22:27;;;;;;;1.40;1.02;;;;;;;8.88;38.71;101796.09;144992;571;6002;-82
2021/12/21 05:24:54;;;;;;;2.03;1.02;;;;;;;8.86;39.65;101807.16;144991;585;6002;-79
2021/12/21 05:27:20;;;;;;;2.17;1.00;;;;;;;8.73;39.85;101813.37;144992;564;6002;-82
2021/12/21 05:29:47;;;;;;;1.73;1.20;;;;;;;8.83;40.97;101809.63;144993;659;6002;-79
2021/12/21 05:32:14;;;;;;;3.05;1.30;;;;;;;8.65;40.32;101806.87;144993;605;6002;-79
2021/12/21 05:34:40;;;;;;;1.90;1.37;;;;;;;8.82;41.50;101815.59;144993;583;6002;-81
2021/12/21 05:37:07;;;;;;;1.65;1.20;;;;;;;9.00;40.82;101813.97;144993;590;6002;-80
2021/12/21 05:39:57;;;;;;;2.55;1.52;;;;;;;9.04;42.01;101813.34;144993;564;6002;-80
2021/12/21 05:42:24;;;;;;;2.05;1.20;;;;;;;8.85;40.23;101821.81;144993;643;6002;-81
2021/12/21 05:44:51;;;;;;;4.00;1.20;;;;;;;8.94;40.66;101824.03;144993;619;6002;-80
2021/12/21 05:47:20;;;;;;;3.22;1.33;;;;;;;8.92;41.04;101823.03;144993;601;6002;-80
2021/12/21 05:49:46;;;;;;;3.42;1.37;;;;;;;8.92;41.50;101836.00;144993;595;6002;-81
2021/12/21 05:52:13;;;;;;;2.47;1.50;;;;;;;9.10;41.48;101837.78;144993;620;6002;-80
2021/12/21 05:54:39;;;;;;;3.67;1.37;;;;;;;9.18;41.92;101841.66;144993;583;6002;-80
2021/12/21 05:57:06;;;;;;;2.80;2.03;;;;;;;9.37;41.10;101838.34;144993;590;6002;-80
2021/12/21 05:59:32;;;;;;;4.68;1.42;;;;;;;9.52;41.17;101848.66;144992;579;6002;-81
2021/12/21 06:02:14;;;;;;;4.68;2.03;;;;;;;9.65;40.79;101851.06;144992;587;6002;-81
2021/12/21 06:04:41;;;;;;;3.53;1.70;;;;;;;9.55;40.59;101859.19;144992;588;6002;-80
2021/12/21 06:07:07;;;;;;;3.05;2.28;;;;;;;9.68;40.78;101863.31;144992;587;6002;-80
2021/12/21 06:09:34;;;;;;;6.37;2.45;;;;;;;9.46;41.13;101866.47;144992;632;6002;-80
2021/12/21 06:12:11;;;;;;;6.18;2.17;;;;;;;9.56;41.14;101868.72;144992;563;6002;-80
2021/12/21 06:26:02;;;;;;;3.80;2.20;;;;;;;9.86;41.14;101882.38;144993;585;6000;-83
2021/12/21 06:28:28;;;;;;;4.68;2.22;;;;;;;9.72;40.99;101873.91;144993;571;6002;-79
2021/12/21 06:30:55;;;;;;;5.15;2.05;;;;;;;9.81;40.96;101881.25;144993;585;6002;-80
2021/12/21 06:33:22;;;;;;;4.37;2.10;;;;;;;9.84;41.54;101896.09;144993;604;6002;-80
2021/12/21 06:35:49;;;;;;;2.95;2.10;;;;;;;9.63;41.80;101899.34;144993;594;6003;-81
2021/12/21 06:38:16;;;;;;;3.78;2.33;;;;;;;9.75;41.59;101896.50;144993;702;6002;-80
2021/12/21 06:40:42;;;;;;;2.67;1.90;;;;;;;9.78;40.91;101896.66;144993;589;6002;-79
2021/12/21 06:43:13;;;;;;;6.37;2.90;;;;;;;9.89;41.21;101907.59;144993;570;6002;-80
2021/12/21 06:45:56;;;;;;;7.22;3.28;;;;;;;9.71;40.74;101913.59;144993;573;6002;-81
2021/12/21 06:53:58;;;;;;;6.32;2.20;;;;;;;9.79;41.56;101914.00;144993;628;6004;-80
2021/12/21 06:56:27;;;;;;;4.18;2.40;;;;;;;9.82;41.55;101921.06;144993;629;6002;-79
2021/12/21 06:58:55;;;;;;;3.33;2.35;;;;;;;9.89;41.56;101918.84;144993;573;6002;-80
2021/12/21 07:01:25;;;;;;;5.55;2.58;;;;;;;9.97;41.51;101925.34;144993;577;6002;-79
2021/12/21 07:03:51;;;;;;;4.25;2.58;;;;;;;10.05;41.29;101919.66;144993;651;6002;-80
2021/12/21 07:06:19;;;;;;;4.82;2.70;;;;;;;10.09;41.02;101919.88;144993;591;6002;-79
2021/12/21 07:08:48;;;;;;;9.98;5.62;;;;;;;10.14;40.96;101928.78;144994;583;5002;-78
2021/12/21 07:19:51;;;;;;;6.68;3.12;;;;;;;10.17;41.35;101941.91;144994;583;5005;-80
2021/12/21 07:22:18;;;;;;;10.77;3.47;;;;;;;10.21;41.06;101940.38;144994;567;5004;-80
2021/12/21 07:24:45;;;;;;;5.72;3.40;;;;;;;10.23;41.11;101946.53;144994;607;5004;-81
2021/12/21 07:27:13;;;;;;;5.20;3.58;;;;;;;10.29;41.37;101945.94;144994;594;5005;-82
2021/12/21 07:29:39;;;;;;;7.37;3.30;;;;;;;10.35;40.70;101954.06;144994;679;5004;-81
2021/12/21 07:32:06;;;;;;;6.10;3.87;;;;;;;10.41;40.96;101959.59;144993;563;5004;-82
2021/12/21 07:34:32;;;;;;;7.10;3.10;;;;;;;10.43;40.84;101957.94;144994;626;5003;-81
2021/12/21 07:36:59;;;;;;;8.48;3.70;;;;;;;10.39;41.06;101956.03;144994;582;5002;-81
2021/12/21 07:39:25;;;;;;;6.65;3.45;;;;;;;10.44;41.13;101964.94;144994;621;5002;-81
2021/12/21 07:41:52;;;;;;;8.13;3.90;;;;;;;10.52;41.08;101970.50;144994;589;5002;-80
2021/12/21 07:44:18;;;;;;;4.35;3.40;;;;;;;10.55;41.27;101970.66;144994;564;5002;-80
2021/12/21 07:46:45;;;;;;;5.05;3.83;;;;;;;10.58;41.07;101969.91;144994;610;5002;-82
2021/12/21 07:49:12;;;;;;;5.80;3.17;;;;;;;10.19;39.57;101965.34;144994;563;5002;-81
2021/12/21 07:51:40;;;;;;;4.00;2.87;;;;;;;9.80;38.89;101984.12;144994;578;5002;-82
2021/12/21 07:54:06;;;;;;;3.40;1.77;;;;;;;9.48;38.43;101981.47;144994;662;5002;-81
2021/12/21 07:56:33;;;;;;;3.45;1.87;;;;;;;9.41;39.46;101991.50;144994;571;5002;-81
2021/12/21 07:59:00;;;;;;;3.33;2.03;;;;;;;9.19;39.18;101989.44;144994;597;5002;-83
2021/12/21 08:01:30;;;;;;;4.00;1.80;;;;;;;9.42;40.34;101997.62;144994;577;5002;-82
2021/12/21 08:03:57;;;;;;;4.60;1.80;;;;;;;9.35;39.41;102003.25;144994;583;5002;-82
2021/12/21 08:06:28;;;;;;;3.22;1.75;;;;;;;9.05;39.79;102004.22;144994;594;5002;-81
2021/12/21 08:08:55;;;;;;;2.00;1.40;;;;;;;9.02;40.38;102011.81;144994;596;5002;-82
2021/12/21 08:14:23;;;;;;;3.35;1.80;;;;;;;9.10;40.05;102008.75;144994;617;5004;-81
2021/12/21 08:16:49;;;;;;;5.28;1.87;;;;;;;9.00;39.91;102010.81;144994;600;5004;-80
2021/12/21 08:19:16;;;;;;;2.58;1.80;;;;;;;9.05;39.24;102013.69;144994;634;5004;-81
2021/12/21 08:21:42;;;;;;;2.12;1.40;;;;;;;8.97;39.96;102014.94;144994;669;5004;-81
2021/12/21 08:24:09;;;;;;;2.78;1.40;;;;;;;9.08;39.89;102016.44;144994;598;5004;-80
2021/12/21 08:26:36;;;;;;;3.28;2.00;;;;;;;8.95;40.30;102016.56;144994;713;5005;-82
2021/12/21 08:29:02;;;;;;;4.05;1.90;;;;;;;9.12;40.12;102027.91;144994;655;5004;-80
2021/12/21 08:31:29;;;;;;;3.33;1.50;;;;;;;9.21;39.25;102033.56;144994;567;5004;-83
2021/12/21 08:33:55;;;;;;;5.82;2.53;;;;;;;9.14;39.90;102037.53;144994;564;5004;-83
2021/12/21 08:36:22;;;;;;;6.30;2.60;;;;;;;9.33;40.14;102035.97;144994;624;5004;-84
2021/12/21 08:38:49;;;;;;;3.42;1.92;;;;;;;9.59;39.74;102034.81;144994;568;5004;-81
2021/12/21 08:41:15;;;;;;;6.18;1.95;;;;;;;9.34;39.92;102045.53;144994;607;5004;-77
2021/12/21 08:43:43;;;;;;;3.55;2.30;;;;;;;9.54;40.49;102047.50;144994;588;5004;-81
2021/12/21 08:46:09;;;;;;;3.47;2.20;;;;;;;9.76;40.45;102048.69;144994;648;5004;-81
2021/12/21 08:48:39;;;;;;;2.55;2.00;;;;;;;9.78;40.34;102039.28;144994;582;5004;-88
2021/12/21 08:51:09;;;;;;;3.28;2.00;;;;;;;9.93;40.17;102047.91;144994;603;5004;-88
2021/12/21 08:53:42;;;;;;;3.33;1.80;;;;;;;10.05;40.07;102050.25;144994;598;5004;-89
2021/12/21 08:56:09;;;;;;;3.90;2.33;;;;;;;9.91;39.57;102056.41;144994;576;5004;-86
2021/12/21 08:58:36;;;;;;;2.45;2.05;;;;;;;10.16;40.08;102062.12;144994;566;5004;-89
2021/12/21 09:01:04;;;;;;;4.05;2.35;;;;;;;10.45;40.03;102052.41;144994;717;5004;-91
2021/12/21 09:03:33;;;;;;;4.07;2.12;;;;;;;10.71;39.67;102058.91;144994;574;5004;-91
2021/12/21 09:06:00;;;;;;;4.75;2.60;;;;;;;10.99;39.68;102057.69;144994;570;5004;-93
2021/12/21 09:11:05;;;;;;;5.62;3.35;;;;;;;11.66;40.30;102047.84;144994;564;5002;-90
2021/12/21 09:13:37;;;;;;;4.43;2.90;;;;;;;12.15;36.92;102057.91;144994;462;5002;-88
2021/12/21 09:36:35;;;;;;;2.95;2.30;;;;;;;15.68;33.79;102050.19;144994;565;5002;-88
2021/12/21 09:39:20;;;;;;;3.70;2.33;;;;;;;16.05;35.98;102058.28;144994;591;5002;-86
2021/12/21 10:48:49;;;;;;;2.33;1.37;;;;;;;15.08;29.38;102005.63;144994;567;5002;-91
2021/12/21 10:51:18;;;;;;;6.12;2.15;;;;;;;15.29;31.75;102008.91;144994;607;5002;-91
2021/12/21 10:56:16;;;;;;;5.10;3.03;;;;;;;15.34;31.36;102006.44;144994;586;5002;-92
2021/12/21 11:01:20;;;;;;;6.28;2.40;;;;;;;15.47;31.43;102005.97;144994;566;5002;-90
2021/12/21 11:03:55;;;;;;;5.72;2.35;;;;;;;15.68;29.81;102003.09;144994;576;5002;-92
2021/12/21 11:06:34;;;;;;;3.58;2.10;;;;;;;15.10;28.74;101991.75;144994;577;5002;-87
2021/12/21 11:09:41;;;;;;;4.05;2.50;;;;;;;15.28;30.10;101996.66;144994;579;5002;-82
2021/12/21 11:14:57;;;;;;;4.03;2.47;;;;;;;15.78;30.73;101999.94;144994;596;5002;-90
2021/12/21 11:17:33;;;;;;;2.95;2.22;;;;;;;15.82;30.05;101990.44;144994;635;5002;-88
2021/12/21 11:19:59;;;;;;;3.47;2.58;;;;;;;16.13;31.21;101988.69;144993;580;5002;-89
2021/12/21 11:22:28;;;;;;;4.40;2.58;;;;;;;16.36;30.56;101985.78;144994;576;5002;-89
2021/12/21 11:25:00;;;;;;;2.97;2.30;;;;;;;16.29;29.65;101992.59;144994;599;5002;-89
2021/12/21 11:27:29;;;;;;;2.60;1.80;;;;;;;16.45;30.89;101989.53;144994;639;5002;-84
2021/12/21 11:30:04;;;;;;;3.85;1.98;;;;;;;16.42;31.02;101986.81;144994;591;5002;-85
2021/12/21 11:32:53;;;;;;;2.50;2.08;;;;;;;16.32;30.59;101982.16;144994;642;5002;-88
2021/12/21 11:38:18;;;;;;;3.58;2.40;;;;;;;15.66;30.74;101986.44;144994;609;5002;-90
2021/12/21 11:41:09;;;;;;;2.42;1.98;;;;;;;15.58;30.28;101983.59;144994;664;4566;-90
2021/12/21 11:44:12;;;;;;;3.20;2.40;;;;;;;15.81;30.19;101979.91;144994;583;4571;-90
2021/12/21 11:47:32;;;;;;;2.25;2.05;;;;;;;15.18;28.78;101971.94;144993;578;6002;-90
2021/12/21 11:50:07;;;;;;;3.53;2.58;;;;;;;15.55;30.39;101975.66;144992;565;6002;-86
2021/12/21 11:52:50;;;;;;;3.30;3.00;;;;;;;15.52;30.83;101980.81;144992;612;6002;-94
2021/12/21 11:55:28;;;;;;;5.43;2.50;;;;;;;14.81;31.04;101967.28;144992;599;6002;-88
2021/12/21 11:58:15;;;;;;;2.87;2.55;;;;;;;15.37;30.86;101965.56;144992;624;6002;-84
2021/12/21 12:01:08;;;;;;;3.28;2.95;;;;;;;15.66;30.82;101955.03;144992;569;6002;-91
2021/12/21 12:03:44;;;;;;;3.78;2.90;;;;;;;15.93;30.81;101970.66;144992;617;6005;-91
2021/12/21 12:06:15;;;;;;;6.85;5.03;;;;;;;15.80;30.54;101963.34;144992;579;6004;-92
2021/12/21 12:08:58;;;;;;;3.45;2.92;;;;;;;15.74;29.83;101961.38;144992;640;6004;-92
2021/12/21 12:11:39;;;;;;;2.92;2.60;;;;;;;15.12;29.05;101963.03;144992;567;6004;-91
2021/12/21 12:14:15;;;;;;;4.10;2.70;;;;;;;14.79;29.01;101963.75;144992;596;6004;-90
2021/12/21 12:16:55;;;;;;;3.47;2.70;;;;;;;14.71;29.73;101957.38;144992;589;6004;-90
2021/12/21 12:19:33;;;;;;;3.62;2.80;;;;;;;15.19;30.36;101964.97;144992;589;6004;-90
2021/12/21 12:24:42;;;;;;;4.75;2.60;;;;;;;15.37;30.16;101964.69;144992;595;6002;-88
2021/12/21 12:27:27;;;;;;;4.65;2.80;;;;;;;15.43;30.40;101957.00;144992;615;6002;-91
2021/12/21 12:30:11;;;;;;;4.50;3.25;;;;;;;15.59;29.30;101948.75;144992;564;6002;-90
2021/12/21 12:32:48;;;;;;;5.47;3.40;;;;;;;15.44;29.18;101958.75;144992;571;6002;-89
2021/12/21 12:35:20;;;;;;;4.10;3.15;;;;;;;15.51;29.73;101962.44;144992;592;6002;-90
2021/12/21 12:37:58;;;;;;;3.92;3.25;;;;;;;15.75;29.77;101950.06;144992;659;6002;-89
2021/12/21 12:40:39;;;;;;;4.62;3.80;;;;;;;15.70;29.92;101963.88;144992;614;6002;-89
2021/12/21 12:43:16;;;;;;;6.40;3.45;;;;;;;15.53;29.36;101961.66;144992;591;6002;-91
2021/12/21 12:45:49;;;;;;;4.32;2.50;;;;;;;15.29;29.84;101974.91;144992;635;6002;-91
2021/12/21 12:48:47;;;;;;;2.70;2.37;;;;;;;14.94;30.03;101972.09;144992;607;6003;-91
2021/12/21 12:51:38;;;;;;;3.10;2.50;;;;;;;15.39;29.75;101976.94;144992;568;6004;-91
2021/12/21 12:54:21;;;;;;;3.40;2.47;;;;;;;15.60;30.06;101984.56;144992;568;6004;-91
2021/12/21 12:56:51;;;;;;;5.57;3.03;;;;;;;15.40;28.10;101981.34;144992;599;6004;-87
2021/12/21 12:59:17;;;;;;;3.42;2.60;;;;;;;15.39;30.14;101997.00;144992;610;6004;-92
2021/12/21 13:01:48;;;;;;;3.72;2.55;;;;;;;15.32;29.83;101987.16;144992;568;6004;-88
2021/12/21 13:04:17;;;;;;;3.50;2.45;;;;;;;15.39;28.93;101999.63;144992;572;6004;-86
2021/12/21 13:06:51;;;;;;;2.87;2.12;;;;;;;15.36;30.19;101994.28;144992;628;6004;-89
2021/12/21 13:09:19;;;;;;;2.50;2.08;;;;;;;15.30;29.63;101999.31;144992;607;6004;-88
2021/12/21 13:11:46;;;;;;;2.30;2.10;;;;;;;15.07;30.02;101998.63;144992;569;6004;-85
2021/12/21 13:14:15;;;;;;;2.50;2.30;;;;;;;14.96;29.95;101998.28;144992;606;6004;-85
2021/12/21 13:16:46;;;;;;;5.07;2.30;;;;;;;14.97;30.19;101994.81;144992;571;6004;-88
2021/12/21 13:19:14;;;;;;;3.35;2.75;;;;;;;14.65;30.27;102003.37;144992;590;6004;-93
2021/12/21 13:21:54;;;;;;;3.00;2.47;;;;;;;14.46;29.76;101999.22;144992;590;6004;-87
2021/12/21 13:24:31;;;;;;;3.00;2.70;;;;;;;14.64;30.67;102005.94;144992;614;6004;-89
2021/12/21 13:27:00;;;;;;;3.28;2.62;;;;;;;14.59;30.59;102005.75;144992;660;6004;-88
2021/12/21 13:29:34;;;;;;;2.97;2.28;;;;;;;14.30;29.59;102008.25;144992;593;6004;-89
2021/12/21 13:32:10;;;;;;;2.65;2.37;;;;;;;13.46;30.18;102007.75;144992;591;6004;-88
2021/12/21 13:34:41;;;;;;;2.83;2.08;;;;;;;13.51;30.96;102009.72;144992;700;6004;-86
2021/12/21 13:37:11;;;;;;;2.15;1.92;;;;;;;13.47;31.39;102010.41;144992;594;6004;-92
2021/12/21 13:39:44;;;;;;;3.75;2.42;;;;;;;13.42;31.34;102009.37;144992;566;6005;-87
2021/12/21 13:42:21;;;;;;;2.35;2.05;;;;;;;12.92;31.45;102018.62;144992;828;6004;-84
2021/12/21 13:44:53;;;;;;;6.90;5.03;;;;;;;13.16;31.62;102013.53;144992;577;6004;-88
2021/12/21 13:47:50;;;;;;;3.60;2.37;;;;;;;12.60;30.36;102021.69;144991;659;6000;-88
2021/12/21 13:50:26;;;;;;;5.80;3.40;;;;;;;12.83;31.77;102014.81;144992;602;6004;-88
2021/12/21 13:53:10;;;;;;;3.10;2.60;;;;;;;12.84;31.66;102021.81;144992;584;6004;-91
2021/12/21 13:55:43;;;;;;;3.45;2.70;;;;;;;13.12;31.53;102029.87;144992;605;6004;-86
2021/12/21 13:58:13;;;;;;;4.57;3.10;;;;;;;13.28;31.64;102027.03;144992;617;6004;-86
2021/12/21 14:00:45;;;;;;;4.00;3.20;;;;;;;13.22;31.60;102030.31;144992;571;6004;-86
2021/12/21 14:06:13;;;;;;;3.90;2.47;;;;;;;12.89;31.54;102037.66;144992;583;6002;-86
2021/12/21 14:08:44;;;;;;;3.85;2.47;;;;;;;13.03;31.68;102036.50;144992;614;6002;-86
2021/12/21 14:11:12;;;;;;;5.40;3.67;;;;;;;13.04;31.71;102050.41;144992;564;6002;-86
2021/12/21 14:13:44;;;;;;;4.30;2.53;;;;;;;12.94;31.09;102045.66;144992;593;6002;-86
2021/12/21 14:16:13;;;;;;;3.45;2.50;;;;;;;12.92;31.85;102039.47;144992;578;6002;-87
2021/12/21 14:18:42;;;;;;;5.15;2.20;;;;;;;12.84;32.00;102036.59;144992;589;6002;-86
2021/12/21 14:21:15;;;;;;;2.10;1.85;;;;;;;12.87;31.73;102041.94;144992;582;6002;-85
2021/12/21 14:23:45;;;;;;;3.50;2.15;;;;;;;12.79;31.79;102051.09;144992;563;6002;-86
2021/12/21 14:26:24;;;;;;;3.28;2.50;;;;;;;12.70;31.83;102049.03;144992;588;6002;-86
2021/12/21 14:29:05;;;;;;;4.47;2.62;;;;;;;12.65;32.14;102042.72;144992;580;6002;-84
2021/12/21 14:31:54;;;;;;;2.92;2.40;;;;;;;12.53;32.13;102050.91;144992;577;6002;-86
2021/12/21 14:34:27;;;;;;;3.58;2.70;;;;;;;12.45;31.61;102049.69;144992;720;6002;-89
2021/12/21 14:36:55;;;;;;;3.87;3.28;;;;;;;12.22;32.72;102046.97;144992;629;6002;-87
2021/12/21 14:39:23;;;;;;;4.95;3.97;;;;;;;12.33;32.63;102040.50;144992;580;6002;-86